Swift Ace — C6XB8 — position and weather

sailwx.info

Track history (hours):
 
Tides and Currents Weather Stations Pressure Air Temp Water Temp Dewpoint Dewpoint Depression Visibility Wind Speed Wind Dir Waves Ship Positions

Swift Ace

Last reported at 2016-Sep-29 16:32 UTC. Time now 2016-Sep-29 18:46 UTC.
Position N 39°14' W 076°32'.

Length 200 m; draft 8.6 m.

Type: Cargo ship. MMSI: 310968322.

Date/timePositionNaut miles runAvg speedWind from/ knotsBaromVisibWave heightAir tempDewpointWater temp
2016-Sep-29 16:32N 39°14' W 076°32'0 0.0
2016-Sep-29 15:32N 39°14' W 076°32'0 0.0
2016-Sep-29 14:32N 39°14' W 076°32'0 0.0
2016-Sep-29 13:32N 39°14' W 076°32'0 0.0
2016-Sep-29 08:32N 39°14' W 076°32'0 0.0
2016-Sep-29 07:32N 39°14' W 076°32'46 6.6
2016-Sep-29 00:33N 39°33' W 075°37'4815.9
2016-Sep-28 21:32N 38°52' W 075°05'21 9.9
2016-Sep-28 19:26N 38°48' W 074°39'4515.7
2016-Sep-28 16:33N 39°20' W 073°58'1918.4
2016-Sep-28 15:33N 39°38' W 073°54'5016.6
2016-Sep-28 12:33N 40°28' W 073°52'19 4.7
2016-Sep-28 08:32N 40°42' W 074°09'0 0.0
2016-Sep-28 03:32N 40°42' W 074°09'0 0.0
2016-Sep-28 02:32N 40°42' W 074°09'0 0.0
2016-Sep-28 01:32N 40°42' W 074°09'0 0.0
2016-Sep-27 23:32N 40°42' W 074°09'0 0.0
2016-Sep-27 19:33N 40°42' W 074°09'5310.6
2016-Sep-27 14:32N 39°53' W 073°42'1615.9
2016-Sep-27 13:33N 39°37' W 073°44'19414.9
2016-Sep-27 00:33N 36°52' W 075°53'25 1.9
2016-Sep-26 11:33N 36°57' W 076°24'  
Track history (hours):
 
Tides and Currents Weather Stations Pressure Air Temp Water Temp Dewpoint Dewpoint Depression Visibility Wind Speed Wind Dir Waves Ship Positions

Swift Ace

Last reported at 2016-Sep-29 16:32 UTC. Time now 2016-Sep-29 18:46 UTC.
Position N 39°14' W 076°32'.

Length 200 m; draft 8.6 m.

Type: Cargo ship. MMSI: 310968322.

Date/timePositionNaut miles runAvg speedWind from/ knotsBaromVisibWave heightAir tempDewpointWater temp
2016-Sep-29 16:32N 39°14' W 076°32'0 0.0
2016-Sep-29 15:32N 39°14' W 076°32'0 0.0
2016-Sep-29 14:32N 39°14' W 076°32'0 0.0
2016-Sep-29 13:32N 39°14' W 076°32'0 0.0
2016-Sep-29 08:32N 39°14' W 076°32'0 0.0
2016-Sep-29 07:32N 39°14' W 076°32'46 6.6
2016-Sep-29 00:33N 39°33' W 075°37'4815.9
2016-Sep-28 21:32N 38°52' W 075°05'21 9.9
2016-Sep-28 19:26N 38°48' W 074°39'4515.7
2016-Sep-28 16:33N 39°20' W 073°58'1918.4
2016-Sep-28 15:33N 39°38' W 073°54'5016.6
2016-Sep-28 12:33N 40°28' W 073°52'19 4.7
2016-Sep-28 08:32N 40°42' W 074°09'0 0.0
2016-Sep-28 03:32N 40°42' W 074°09'0 0.0
2016-Sep-28 02:32N 40°42' W 074°09'0 0.0
2016-Sep-28 01:32N 40°42' W 074°09'0 0.0
2016-Sep-27 23:32N 40°42' W 074°09'0 0.0
2016-Sep-27 19:33N 40°42' W 074°09'5310.6
2016-Sep-27 14:32N 39°53' W 073°42'1615.9
2016-Sep-27 13:33N 39°37' W 073°44'19414.9
2016-Sep-27 00:33N 36°52' W 075°53'25 1.9
2016-Sep-26 11:33N 36°57' W 076°24'  

Dump ship's entire track history